createdAt,value
2022-10-23T16:48:02.260Z,13.02
2022-10-23T16:51:07.979Z,13.16
2022-10-23T16:54:11.547Z,13.27
2022-10-23T16:57:15.150Z,13.24
2022-10-23T17:00:21.960Z,13.31
2022-10-23T17:03:26.998Z,13.26
2022-10-23T17:06:33.451Z,13.14
2022-10-23T17:09:38.400Z,13.28
2022-10-23T17:12:41.993Z,13.19
2022-10-23T17:15:45.597Z,13.31
2022-10-23T17:18:51.270Z,13.25
2022-10-23T17:21:56.327Z,13.31
2022-10-23T17:24:59.894Z,13.28
2022-10-23T17:28:03.494Z,13.27
2022-10-23T17:31:13.350Z,13.31
2022-10-23T17:34:20.439Z,13.22
2022-10-23T17:37:24.059Z,13.16
2022-10-23T17:40:30.809Z,13.17
2022-10-23T17:43:35.181Z,13.18
2022-10-23T17:46:39.193Z,13.01
2022-10-23T17:49:46.079Z,12.98
2022-10-23T17:52:49.866Z,12.99
2022-10-23T17:55:53.440Z,12.87
2022-10-23T17:59:00.962Z,12.79
2022-10-23T18:02:04.637Z,12.94
2022-10-23T18:05:11.224Z,13.02
2022-10-23T18:08:15.822Z,12.83
2022-10-23T18:11:22.438Z,12.84
2022-10-23T18:14:28.526Z,12.84
2022-10-23T18:17:33.642Z,12.80
2022-10-23T18:20:41.957Z,12.72
2022-10-23T18:23:46.118Z,12.91
2022-10-23T18:26:49.919Z,12.85
2022-10-23T18:29:54.094Z,12.81
2022-10-23T18:32:58.154Z,12.94
2022-10-23T18:36:03.118Z,12.95
2022-10-23T18:39:09.327Z,13.04
2022-10-23T18:42:12.893Z,12.93
2022-10-23T18:45:16.884Z,13.12
2022-10-23T18:48:20.454Z,13.12
2022-10-23T18:51:28.053Z,13.22
2022-10-23T18:54:31.859Z,13.10
2022-10-23T18:57:37.399Z,12.96
2022-10-23T19:00:42.008Z,12.96
2022-10-23T19:03:45.684Z,12.94
2022-10-23T19:06:51.413Z,12.98
2022-10-23T19:09:56.813Z,12.54
2022-10-23T19:13:00.388Z,12.82
2022-10-23T19:16:05.287Z,12.68
2022-10-23T19:19:14.016Z,12.79
2022-10-23T19:22:19.369Z,12.77
2022-10-23T19:25:26.282Z,12.64
2022-10-23T19:28:32.968Z,12.63
2022-10-23T19:31:37.886Z,12.71
2022-10-23T19:34:41.534Z,12.82
2022-10-23T19:37:47.117Z,12.79
2022-10-23T19:40:50.748Z,12.67
2022-10-23T19:43:54.358Z,12.59
2022-10-23T19:46:57.968Z,12.65
2022-10-23T19:50:01.647Z,12.71
2022-10-23T19:53:06.720Z,12.84
2022-10-23T19:56:12.475Z,13.00
2022-10-23T19:59:16.134Z,12.81
2022-10-23T20:02:21.087Z,12.96
2022-10-23T20:05:24.936Z,13.07
2022-10-23T20:08:32.750Z,12.95
2022-10-23T20:11:40.509Z,13.37
2022-10-23T20:14:44.284Z,13.17
2022-10-23T20:17:47.845Z,12.94
2022-10-23T20:20:51.512Z,13.07
2022-10-23T20:23:58.329Z,13.06
2022-10-23T20:27:01.966Z,13.13
2022-10-23T20:30:06.500Z,13.27
2022-10-23T20:33:10.451Z,12.97
2022-10-23T20:36:24.774Z,13.29
2022-10-23T20:39:29.991Z,13.41
2022-10-23T20:42:33.572Z,13.49
2022-10-23T20:45:37.160Z,13.52
2022-10-23T20:48:42.907Z,13.33
2022-10-23T20:51:54.807Z,13.30
2022-10-23T20:55:00.485Z,13.38
2022-10-23T20:58:04.974Z,13.47
